Time;durP1;ratioP1;P1;durP2;ratioP2;P2;SDS_P1;SDS_P2;PMS_P1;PMS_P2;Temp;Humidity;BMP_temperature;BMP_pressure;BME280_temperature;BME280_humidity;BME280_pressure;Samples;Min_cycle;Max_cycle;Signal;HPM_P1;HPM_P2
2022/06/10 00:00:26;;;;;;;;;24.20;19.60;;;;;;;;4979233;28;8803;-67
2022/06/10 00:02:53;;;;;;;;;16.00;16.00;;;;;;;;4980950;28;8768;-71
2022/06/10 00:05:22;;;;;;;;;11.40;8.80;;;;;;;;4980925;28;8802;-70
2022/06/10 00:07:49;;;;;;;;;16.80;16.60;;;;;;;;4963520;28;9051;-66
2022/06/10 00:10:16;;;;;;;;;24.25;18.00;;;;;;;;4981147;28;8728;-73
2022/06/10 00:12:43;;;;;;;;;22.00;16.75;;;;;;;;4980863;28;8874;-67
2022/06/10 00:15:09;;;;;;;;;21.80;20.80;;;;;;;;4980504;28;8791;-72
2022/06/10 00:17:36;;;;;;;;;23.80;18.40;;;;;;;;4980535;28;8779;-71
2022/06/10 00:20:03;;;;;;;;;21.00;18.20;;;;;;;;4981283;28;8775;-70
2022/06/10 00:22:30;;;;;;;;;25.25;22.25;;;;;;;;4979584;28;8763;-72
2022/06/10 00:24:57;;;;;;;;;26.50;24.00;;;;;;;;4981380;28;8767;-68
2022/06/10 00:27:23;;;;;;;;;23.50;21.50;;;;;;;;4979874;28;8767;-72
2022/06/10 00:29:50;;;;;;;;;12.25;11.00;;;;;;;;4980541;28;8802;-70
2022/06/10 00:32:19;;;;;;;;;33.00;27.80;;;;;;;;4980191;28;8783;-67
2022/06/10 00:34:46;;;;;;;;;35.25;31.00;;;;;;;;4961298;28;8795;-72
2022/06/10 00:37:13;;;;;;;;;35.00;28.00;;;;;;;;4980188;28;8764;-65
2022/06/10 00:39:39;;;;;;;;;50.25;38.50;;;;;;;;4978343;28;8811;-72
2022/06/10 00:42:07;;;;;;;;;49.00;37.25;;;;;;;;4978045;28;8921;-66
2022/06/10 00:44:37;;;;;;;;;37.25;30.75;;;;;;;;4954481;28;8763;-61
2022/06/10 00:47:27;;;;;;;;;32.75;29.50;;;;;;;;4979993;28;8868;-71
2022/06/10 00:49:58;;;;;;;;;30.75;27.50;;;;;;;;4969509;28;8799;-70
2022/06/10 00:52:26;;;;;;;;;26.80;22.00;;;;;;;;4978533;28;8803;-66
2022/06/10 00:54:53;;;;;;;;;27.25;24.25;;;;;;;;4978028;28;8807;-66
2022/06/10 00:57:20;;;;;;;;;30.25;25.50;;;;;;;;4977934;28;8791;-70
2022/06/10 00:59:50;;;;;;;;;28.50;21.75;;;;;;;;4979352;28;8786;-71
2022/06/10 01:02:21;;;;;;;;;20.50;18.50;;;;;;;;4979268;28;8763;-69
2022/06/10 01:04:47;;;;;;;;;16.40;14.20;;;;;;;;4979721;28;8783;-70
2022/06/10 01:07:15;;;;;;;;;23.40;16.40;;;;;;;;4980219;28;8768;-64
2022/06/10 01:09:42;;;;;;;;;21.60;18.80;;;;;;;;4962581;28;8776;-71
2022/06/10 01:12:09;;;;;;;;;21.75;19.75;;;;;;;;4979039;28;8775;-64
2022/06/10 01:14:41;;;;;;;;;16.80;15.40;;;;;;;;4977777;28;8802;-71
2022/06/10 01:17:23;;;;;;;;;24.60;21.20;;;;;;;;4960361;28;8783;-72
2022/06/10 01:20:08;;;;;;;;;19.00;19.00;;;;;;;;4979073;28;8806;-66
2022/06/10 01:22:41;;;;;;;;;20.60;17.80;;;;;;;;4978719;28;9424;-72
2022/06/10 01:25:26;;;;;;;;;17.00;17.00;;;;;;;;4979330;28;8869;-50
2022/06/10 01:27:58;;;;;;;;;19.20;17.40;;;;;;;;4979844;28;8926;-62
2022/06/10 01:30:40;;;;;;;;;20.00;17.25;;;;;;;;4978883;28;8779;-72
2022/06/10 01:33:22;;;;;;;;;19.20;17.40;;;;;;;;4979610;28;8841;-72
2022/06/10 01:35:54;;;;;;;;;22.75;19.25;;;;;;;;4979825;28;8866;-73
2022/06/10 01:38:28;;;;;;;;;18.20;15.00;;;;;;;;4979200;28;8756;-70
2022/06/10 01:41:14;;;;;;;;;19.00;17.60;;;;;;;;4962486;28;8772;-68
2022/06/10 01:44:09;;;;;;;;;18.20;16.80;;;;;;;;4961865;28;8818;-75
2022/06/10 01:46:37;;;;;;;;;15.00;10.40;;;;;;;;4910155;28;8768;-67
2022/06/10 01:49:36;;;;;;;;;18.00;16.20;;;;;;;;4979579;28;8792;-73
2022/06/10 01:52:10;;;;;;;;;18.00;13.60;;;;;;;;4927842;28;8807;-75
2022/06/10 01:54:55;;;;;;;;;15.80;13.60;;;;;;;;4959113;28;10190;-73
2022/06/10 01:57:31;;;;;;;;;19.60;15.80;;;;;;;;4958135;28;8775;-64
2022/06/10 01:59:59;;;;;;;;;18.80;15.20;;;;;;;;4961868;28;8795;-64
2022/06/10 02:02:30;;;;;;;;;13.60;12.40;;;;;;;;4940541;28;8851;-70
2022/06/10 02:04:59;;;;;;;;;16.20;15.00;;;;;;;;4939310;29;8800;-73
2022/06/10 02:07:27;;;;;;;;;17.80;13.80;;;;;;;;4939718;28;8893;-71
2022/06/10 02:09:59;;;;;;;;;20.40;13.60;;;;;;;;4941429;29;8774;-67
2022/06/10 02:12:28;;;;;;;;;16.60;13.60;;;;;;;;4939859;28;8812;-63
2022/06/10 02:15:03;;;;;;;;;17.60;15.00;;;;;;;;4936165;28;9232;-70
2022/06/10 02:17:31;;;;;;;;;11.00;10.00;;;;;;;;4957929;28;8809;-63
2022/06/10 02:19:58;;;;;;;;;19.00;16.20;;;;;;;;4974525;28;8771;-64
2022/06/10 02:22:45;;;;;;;;;24.40;17.20;;;;;;;;4958620;28;8771;-57
2022/06/10 02:25:17;;;;;;;;;18.40;17.80;;;;;;;;4959845;28;8767;-73
2022/06/10 02:27:46;;;;;;;;;18.20;16.00;;;;;;;;4957173;28;8783;-69
2022/06/10 02:30:18;;;;;;;;;16.80;15.20;;;;;;;;4943326;29;8781;-73
2022/06/10 02:32:44;;;;;;;;;18.80;16.40;;;;;;;;4938397;28;8896;-66
2022/06/10 02:35:11;;;;;;;;;18.60;15.00;;;;;;;;4938096;29;8805;-64
2022/06/10 02:37:41;;;;;;;;;13.00;12.20;;;;;;;;4922214;29;8793;-73
2022/06/10 02:40:26;;;;;;;;;16.20;13.60;;;;;;;;4939665;29;8765;-74
2022/06/10 02:42:58;;;;;;;;;15.20;12.80;;;;;;;;4939958;28;8785;-54
2022/06/10 02:45:36;;;;;;;;;18.20;15.60;;;;;;;;4954690;28;8783;-66
2022/06/10 02:48:29;;;;;;;;;11.40;10.20;;;;;;;;4956484;28;8801;-72
2022/06/10 02:50:55;;;;;;;;;13.60;10.60;;;;;;;;4949401;28;8783;-63
2022/06/10 02:53:22;;;;;;;;;10.20;7.60;;;;;;;;4960557;28;8866;-71
2022/06/10 02:55:49;;;;;;;;;12.20;9.00;;;;;;;;4977835;28;8802;-72
2022/06/10 03:01:12;;;;;;;;;14.00;12.40;;;;;;;;4958708;28;8770;-62
2022/06/10 03:03:45;;;;;;;;;11.00;10.00;;;;;;;;4957310;28;8817;-64
2022/06/10 03:06:17;;;;;;;;;10.80;10.00;;;;;;;;4957639;28;8769;-76
2022/06/10 03:08:48;;;;;;;;;11.60;8.40;;;;;;;;4958237;28;8777;-78
2022/06/10 03:11:33;;;;;;;;;10.20;5.20;;;;;;;;4941584;28;8797;-71
2022/06/10 03:14:11;;;;;;;;;10.80;8.40;;;;;;;;4964370;28;8776;-81
2022/06/10 03:16:43;;;;;;;;;15.80;9.80;;;;;;;;4976618;28;8775;-68
2022/06/10 03:19:31;;;;;;;;;12.00;7.60;;;;;;;;4977733;28;8732;-74
2022/06/10 03:22:16;;;;;;;;;7.60;7.00;;;;;;;;4979047;28;8752;-72
2022/06/10 03:25:02;;;;;;;;;12.40;11.40;;;;;;;;4978014;28;8790;-73
2022/06/10 03:27:34;;;;;;;;;12.20;11.20;;;;;;;;4978018;28;8767;-71
2022/06/10 03:30:04;;;;;;;;;11.00;10.20;;;;;;;;4978348;28;8755;-72
2022/06/10 03:32:40;;;;;;;;;14.00;11.40;;;;;;;;4977172;28;8767;-73
2022/06/10 03:35:08;;;;;;;;;17.20;13.00;;;;;;;;4963825;28;9137;-71
2022/06/10 03:37:36;;;;;;;;;19.40;15.00;;;;;;;;4980375;28;9202;-76
2022/06/10 03:40:03;;;;;;;;;17.60;11.20;;;;;;;;4981680;28;8772;-71
2022/06/10 03:42:30;;;;;;;;;17.00;11.20;;;;;;;;4964178;28;8842;-73
2022/06/10 03:44:57;;;;;;;;;13.40;11.00;;;;;;;;4955108;28;8783;-72
2022/06/10 03:47:25;;;;;;;;;9.40;9.20;;;;;;;;4979708;28;8790;-71
2022/06/10 03:49:57;;;;;;;;;13.00;11.20;;;;;;;;4980228;28;8805;-71
2022/06/10 03:52:24;;;;;;;;;12.80;12.80;;;;;;;;4980921;28;8877;-67
2022/06/10 03:54:51;;;;;;;;;13.00;10.00;;;;;;;;4981230;28;8787;-72
2022/06/10 03:57:18;;;;;;;;;16.60;11.80;;;;;;;;4981252;28;8776;-66
2022/06/10 03:59:45;;;;;;;;;9.20;8.80;;;;;;;;4980859;28;8779;-69
2022/06/10 04:02:12;;;;;;;;;13.60;10.80;;;;;;;;4981085;28;8779;-73
2022/06/10 04:04:39;;;;;;;;;11.80;11.00;;;;;;;;4980549;28;9592;-69
2022/06/10 04:07:06;;;;;;;;;13.80;12.40;;;;;;;;4981389;28;8755;-72
2022/06/10 04:09:33;;;;;;;;;12.80;11.80;;;;;;;;4980576;28;8901;-71
2022/06/10 04:12:00;;;;;;;;;12.00;12.00;;;;;;;;4980318;28;8779;-72
2022/06/10 04:14:26;;;;;;;;;11.80;11.20;;;;;;;;4962417;28;9527;-73
2022/06/10 04:16:53;;;;;;;;;7.20;5.00;;;;;;;;4980154;28;8949;-69
2022/06/10 04:19:20;;;;;;;;;22.00;13.60;;;;;;;;4980743;28;8771;-73
2022/06/10 04:21:46;;;;;;;;;15.40;10.40;;;;;;;;4980522;28;8815;-58
2022/06/10 04:24:13;;;;;;;;;15.20;11.60;;;;;;;;4980899;28;8795;-70
2022/06/10 04:26:40;;;;;;;;;15.80;12.20;;;;;;;;4963115;28;8771;-67
2022/06/10 04:29:06;;;;;;;;;15.40;10.40;;;;;;;;4959570;28;8813;-59
2022/06/10 04:31:33;;;;;;;;;16.20;12.00;;;;;;;;4960556;28;8879;-67
2022/06/10 04:34:00;;;;;;;;;12.40;10.40;;;;;;;;4976293;28;8809;-74
2022/06/10 04:36:26;;;;;;;;;13.00;9.60;;;;;;;;4959847;28;8837;-70
2022/06/10 04:38:53;;;;;;;;;14.60;10.60;;;;;;;;4960218;28;8789;-59
2022/06/10 04:41:20;;;;;;;;;16.00;12.60;;;;;;;;4959882;28;8761;-72
2022/06/10 04:43:46;;;;;;;;;19.00;11.40;;;;;;;;4964932;28;8826;-74
2022/06/10 04:46:16;;;;;;;;;13.00;11.00;;;;;;;;4963023;28;8779;-70
2022/06/10 04:48:43;;;;;;;;;14.80;9.60;;;;;;;;4980693;28;8779;-75
2022/06/10 04:51:10;;;;;;;;;9.20;7.40;;;;;;;;4951781;28;8916;-73
2022/06/10 04:53:38;;;;;;;;;14.00;10.00;;;;;;;;4940084;28;8828;-66
2022/06/10 04:56:04;;;;;;;;;12.20;11.40;;;;;;;;4941917;28;8915;-65
2022/06/10 04:58:31;;;;;;;;;11.40;9.60;;;;;;;;4940410;28;8790;-76
2022/06/10 05:00:58;;;;;;;;;11.60;11.40;;;;;;;;4941640;29;8754;-71
2022/06/10 05:03:24;;;;;;;;;16.20;15.60;;;;;;;;4940513;28;8816;-66
2022/06/10 05:05:51;;;;;;;;;13.60;11.60;;;;;;;;4939837;29;8781;-75
2022/06/10 05:08:18;;;;;;;;;11.60;10.40;;;;;;;;4940492;28;8819;-68
2022/06/10 05:10:45;;;;;;;;;10.20;10.20;;;;;;;;4940592;28;8832;-68
2022/06/10 05:13:12;;;;;;;;;17.60;14.60;;;;;;;;4941885;29;8943;-72
2022/06/10 05:15:38;;;;;;;;;13.40;10.40;;;;;;;;4940428;28;8817;-67
2022/06/10 05:18:06;;;;;;;;;14.00;11.00;;;;;;;;4940121;28;8781;-65
2022/06/10 05:20:37;;;;;;;;;14.80;14.80;;;;;;;;4938981;29;8789;-67
2022/06/10 05:23:04;;;;;;;;;16.20;12.80;;;;;;;;4939553;29;8777;-65
2022/06/10 05:25:30;;;;;;;;;17.80;13.80;;;;;;;;4939284;28;8801;-66
2022/06/10 05:27:57;;;;;;;;;15.80;14.40;;;;;;;;4941963;29;9422;-64
2022/06/10 05:30:24;;;;;;;;;15.80;14.80;;;;;;;;4936244;29;8862;-68
2022/06/10 05:32:51;;;;;;;;;17.60;11.00;;;;;;;;4921592;29;8992;-64
2022/06/10 05:35:18;;;;;;;;;12.60;12.60;;;;;;;;4921571;29;8850;-60
2022/06/10 05:37:46;;;;;;;;;14.40;13.00;;;;;;;;4921198;29;8822;-68
2022/06/10 05:40:13;;;;;;;;;13.80;12.60;;;;;;;;4920693;29;8784;-67
2022/06/10 05:42:40;;;;;;;;;11.20;11.20;;;;;;;;4921175;29;8863;-64
2022/06/10 05:45:07;;;;;;;;;16.20;13.40;;;;;;;;4935437;28;8805;-66
2022/06/10 05:47:34;;;;;;;;;14.00;13.00;;;;;;;;4938405;28;9010;-66
2022/06/10 05:50:01;;;;;;;;;14.80;12.40;;;;;;;;4940333;28;9470;-66
2022/06/10 05:52:29;;;;;;;;;19.40;14.80;;;;;;;;4975808;28;8791;-65
2022/06/10 05:54:57;;;;;;;;;17.00;13.80;;;;;;;;4979446;28;8898;-63
2022/06/10 05:57:23;;;;;;;;;22.60;15.80;;;;;;;;4977345;28;8806;-66
2022/06/10 05:59:52;;;;;;;;;14.80;14.80;;;;;;;;4978568;28;8779;-65
2022/06/10 06:02:19;;;;;;;;;14.80;14.60;;;;;;;;4978246;28;8790;-64
2022/06/10 06:04:46;;;;;;;;;16.40;15.00;;;;;;;;4961689;28;9172;-66
2022/06/10 06:07:16;;;;;;;;;21.00;14.80;;;;;;;;4962227;28;8814;-64
2022/06/10 06:09:43;;;;;;;;;19.20;15.00;;;;;;;;4977887;28;8775;-69
2022/06/10 06:12:10;;;;;;;;;12.20;11.60;;;;;;;;4977301;28;8815;-69
2022/06/10 06:14:36;;;;;;;;;15.00;13.20;;;;;;;;4977734;28;8855;-65
2022/06/10 06:17:03;;;;;;;;;15.20;14.00;;;;;;;;4978414;28;8774;-73
2022/06/10 06:19:30;;;;;;;;;17.60;12.00;;;;;;;;4977068;28;8784;-77
2022/06/10 06:21:57;;;;;;;;;16.20;12.40;;;;;;;;4961456;28;8806;-80
2022/06/10 06:24:24;;;;;;;;;14.80;11.60;;;;;;;;4976701;28;8768;-88
2022/06/10 06:26:51;;;;;;;;;14.00;13.20;;;;;;;;4978017;28;8771;-71
2022/06/10 06:29:18;;;;;;;;;17.20;15.00;;;;;;;;4977130;28;8771;-83
2022/06/10 06:31:45;;;;;;;;;17.60;15.20;;;;;;;;4961111;28;8941;-74
2022/06/10 06:34:12;;;;;;;;;19.20;16.20;;;;;;;;4961510;28;8823;-81
2022/06/10 06:36:48;;;;;;;;;14.00;12.20;;;;;;;;4959707;28;8822;-75
2022/06/10 06:39:15;;;;;;;;;15.00;13.20;;;;;;;;4959846;28;8783;-73
2022/06/10 06:41:41;;;;;;;;;17.80;11.80;;;;;;;;4976259;28;8827;-77
2022/06/10 06:44:08;;;;;;;;;16.20;13.00;;;;;;;;4977899;28;8850;-76
2022/06/10 06:46:37;;;;;;;;;11.40;11.00;;;;;;;;4960125;28;8913;-75
2022/06/10 06:49:04;;;;;;;;;13.75;13.00;;;;;;;;4980086;28;9479;-70
2022/06/10 06:51:31;;;;;;;;;16.00;13.00;;;;;;;;4979054;28;8815;-79
2022/06/10 06:53:59;;;;;;;;;14.50;13.50;;;;;;;;4978739;28;8787;-67
2022/06/10 06:56:26;;;;;;;;;15.60;13.00;;;;;;;;4979046;28;8763;-74
2022/06/10 06:58:53;;;;;;;;;12.75;10.50;;;;;;;;4979084;28;8764;-69
2022/06/10 07:01:20;;;;;;;;;15.25;10.00;;;;;;;;4962018;28;8780;-64
2022/06/10 07:03:46;;;;;;;;;14.00;12.25;;;;;;;;4978033;28;8788;-72
2022/06/10 07:06:13;;;;;;;;;10.00;9.20;;;;;;;;4978703;28;9964;-70
2022/06/10 07:08:40;;;;;;;;;16.50;14.00;;;;;;;;4968945;28;8784;-71
2022/06/10 07:11:07;;;;;;;;;14.00;12.00;;;;;;;;4981376;28;9526;-70
2022/06/10 07:13:33;;;;;;;;;14.60;13.60;;;;;;;;4964624;28;8786;-70
2022/06/10 07:16:03;;;;;;;;;10.20;10.20;;;;;;;;4982614;28;8830;-70
2022/06/10 07:18:30;;;;;;;;;12.80;11.60;;;;;;;;4981616;28;8862;-69
2022/06/10 07:20:57;;;;;;;;;9.80;8.20;;;;;;;;4982867;28;8756;-69
2022/06/10 07:23:24;;;;;;;;;11.00;9.50;;;;;;;;4982629;28;8783;-67
2022/06/10 07:25:51;;;;;;;;;16.50;10.50;;;;;;;;4982628;28;8901;-68
2022/06/10 07:28:18;;;;;;;;;15.25;12.00;;;;;;;;4983205;28;8755;-68
2022/06/10 07:30:44;;;;;;;;;16.00;12.75;;;;;;;;4983659;28;8803;-69
2022/06/10 07:33:12;;;;;;;;;14.00;10.80;;;;;;;;4984355;28;9448;-69
2022/06/10 07:35:39;;;;;;;;;13.80;12.40;;;;;;;;4982217;28;8803;-68
2022/06/10 07:38:06;;;;;;;;;12.40;11.60;;;;;;;;4966006;28;8751;-68
2022/06/10 07:43:22;;;;;;;;;17.00;12.80;;;;;;;;4982090;28;8831;-73
2022/06/10 07:45:49;;;;;;;;;13.80;10.60;;;;;;;;4981692;28;8822;-63
2022/06/10 07:48:16;;;;;;;;;13.40;9.80;;;;;;;;4981107;28;8783;-65
2022/06/10 07:50:43;;;;;;;;;14.80;12.80;;;;;;;;4981270;28;8799;-74
2022/06/10 07:53:09;;;;;;;;;18.00;12.75;;;;;;;;4980321;28;8783;-65
2022/06/10 07:55:36;;;;;;;;;13.75;12.25;;;;;;;;4980922;28;8803;-71
2022/06/10 07:58:03;;;;;;;;;18.25;13.25;;;;;;;;4981487;28;8866;-50
2022/06/10 08:00:30;;;;;;;;;15.75;15.25;;;;;;;;4980503;28;8791;-62
2022/06/10 08:02:59;;;;;;;;;12.25;10.50;;;;;;;;4980218;28;8873;-55
2022/06/10 08:05:26;;;;;;;;;14.00;13.00;;;;;;;;4963779;28;9421;-71
2022/06/10 08:07:52;;;;;;;;;15.40;13.80;;;;;;;;4963249;28;8791;-64
2022/06/10 08:10:23;;;;;;;;;19.00;15.50;;;;;;;;4981294;28;8763;-70
2022/06/10 08:12:50;;;;;;;;;15.40;14.00;;;;;;;;4964054;28;8776;-70
2022/06/10 08:15:16;;;;;;;;;15.60;10.00;;;;;;;;4980281;28;8805;-60
2022/06/10 08:17:43;;;;;;;;;15.25;13.75;;;;;;;;4981634;28;8748;-69
2022/06/10 08:20:12;;;;;;;;;15.25;13.00;;;;;;;;4979312;28;8807;-58
2022/06/10 08:22:38;;;;;;;;;14.40;12.40;;;;;;;;4979406;28;8791;-66
2022/06/10 08:25:06;;;;;;;;;14.00;11.50;;;;;;;;4981215;28;8748;-60
2022/06/10 08:27:34;;;;;;;;;18.00;14.75;;;;;;;;4980264;28;8792;-72
2022/06/10 08:30:01;;;;;;;;;10.25;9.25;;;;;;;;4979408;28;8771;-72
2022/06/10 08:32:28;;;;;;;;;15.25;12.50;;;;;;;;4980100;28;8799;-59
2022/06/10 08:34:54;;;;;;;;;14.50;10.75;;;;;;;;4971112;28;8787;-71
2022/06/10 08:37:21;;;;;;;;;17.50;13.50;;;;;;;;4980833;28;9454;-58
2022/06/10 08:39:48;;;;;;;;;14.60;14.60;;;;;;;;4980575;28;8763;-66
2022/06/10 08:42:20;;;;;;;;;15.50;14.00;;;;;;;;4980429;28;8770;-71
2022/06/10 08:44:47;;;;;;;;;22.40;17.60;;;;;;;;4980122;28;9578;-72
2022/06/10 08:47:18;;;;;;;;;25.25;21.50;;;;;;;;4980375;28;8779;-66
2022/06/10 08:49:51;;;;;;;;;29.00;23.00;;;;;;;;4978906;28;8819;-71
2022/06/10 08:52:17;;;;;;;;;26.25;23.00;;;;;;;;4979640;28;8881;-71
2022/06/10 08:54:56;;;;;;;;;23.25;21.75;;;;;;;;4979924;28;8950;-62
2022/06/10 08:57:34;;;;;;;;;22.50;18.00;;;;;;;;4968408;28;8786;-68
2022/06/10 09:00:01;;;;;;;;;18.75;16.00;;;;;;;;4976135;28;8761;-68
2022/06/10 09:02:30;;;;;;;;;18.50;18.25;;;;;;;;4943032;28;8887;-71
2022/06/10 09:05:03;;;;;;;;;23.00;17.75;;;;;;;;4960654;28;9461;-72
2022/06/10 09:07:31;;;;;;;;;20.60;17.80;;;;;;;;4960646;28;8762;-67
2022/06/10 09:09:58;;;;;;;;;20.00;14.25;;;;;;;;4961264;28;9454;-72
2022/06/10 09:12:37;;;;;;;;;21.50;18.75;;;;;;;;4960574;28;8771;-72
2022/06/10 09:15:04;;;;;;;;;20.25;18.75;;;;;;;;4974234;28;8775;-68
2022/06/10 09:17:34;;;;;;;;;18.75;16.75;;;;;;;;4979483;28;9517;-70
2022/06/10 09:20:10;;;;;;;;;17.25;15.00;;;;;;;;4962454;28;8782;-69
2022/06/10 09:22:55;;;;;;;;;16.20;13.60;;;;;;;;4979574;28;8838;-72
2022/06/10 09:25:24;;;;;;;;;16.50;15.75;;;;;;;;4979812;28;8784;-65
2022/06/10 09:27:52;;;;;;;;;19.00;16.25;;;;;;;;4979038;28;8787;-72
2022/06/10 09:30:20;;;;;;;;;15.50;15.00;;;;;;;;4977688;28;8779;-65
2022/06/10 09:32:47;;;;;;;;;21.25;17.25;;;;;;;;4979054;28;8933;-69
2022/06/10 09:35:13;;;;;;;;;16.00;11.75;;;;;;;;4979214;28;8802;-72
2022/06/10 09:37:52;;;;;;;;;22.50;18.50;;;;;;;;4979337;28;8756;-70
2022/06/10 09:40:37;;;;;;;;;17.50;16.25;;;;;;;;4979543;28;8819;-68
2022/06/10 09:43:10;;;;;;;;;28.25;19.75;;;;;;;;4963265;28;8871;-69
2022/06/10 09:45:43;;;;;;;;;24.00;21.50;;;;;;;;4961285;28;8783;-68
2022/06/10 09:48:12;;;;;;;;;21.50;18.00;;;;;;;;4979063;28;8813;-68
2022/06/10 09:50:57;;;;;;;;;19.00;14.75;;;;;;;;4978679;28;8905;-69
2022/06/10 09:53:56;;;;;;;;;20.00;18.00;;;;;;;;4978724;28;8857;-68
2022/06/10 09:56:22;;;;;;;;;18.25;18.00;;;;;;;;4919780;28;9456;-68
2022/06/10 09:59:12;;;;;;;;;18.25;16.00;;;;;;;;4979366;28;8771;-69
2022/06/10 10:01:44;;;;;;;;;13.40;12.20;;;;;;;;4953821;28;9566;-69
2022/06/10 10:04:19;;;;;;;;;22.60;15.80;;;;;;;;4962481;28;8776;-69
2022/06/10 10:06:52;;;;;;;;;22.00;17.75;;;;;;;;4978722;28;8768;-69
2022/06/10 10:09:21;;;;;;;;;21.00;14.75;;;;;;;;4978723;28;8788;-68
2022/06/10 10:12:06;;;;;;;;;13.50;12.75;;;;;;;;4978715;28;8771;-69
2022/06/10 10:14:39;;;;;;;;;22.75;16.50;;;;;;;;4961075;28;8806;-69
2022/06/10 10:17:22;;;;;;;;;20.00;18.20;;;;;;;;4978865;28;8752;-69
2022/06/10 10:20:09;;;;;;;;;27.50;18.00;;;;;;;;4977587;28;8825;-68
2022/06/10 10:22:43;;;;;;;;;21.25;18.50;;;;;;;;4977176;28;8764;-68
2022/06/10 10:25:14;;;;;;;;;17.50;15.50;;;;;;;;4978930;28;8791;-68
2022/06/10 10:27:41;;;;;;;;;23.50;18.25;;;;;;;;4977124;28;8783;-68
2022/06/10 10:30:28;;;;;;;;;18.00;15.00;;;;;;;;4978332;28;8890;-68
2022/06/10 10:32:56;;;;;;;;;16.75;15.75;;;;;;;;4964007;28;8810;-68
2022/06/10 10:35:24;;;;;;;;;20.25;18.25;;;;;;;;4958505;28;8875;-68
2022/06/10 10:37:52;;;;;;;;;21.75;21.00;;;;;;;;4959540;28;8822;-67
2022/06/10 10:40:22;;;;;;;;;25.25;20.00;;;;;;;;4977136;28;9526;-69
2022/06/10 10:42:49;;;;;;;;;21.40;20.00;;;;;;;;4974957;28;8839;-67
2022/06/10 10:45:23;;;;;;;;;21.50;17.50;;;;;;;;4975325;28;8788;-69
2022/06/10 10:47:50;;;;;;;;;23.00;20.00;;;;;;;;4975626;28;8998;-70
2022/06/10 10:50:18;;;;;;;;;19.80;18.60;;;;;;;;4977923;28;8775;-66
2022/06/10 10:52:45;;;;;;;;;24.00;19.00;;;;;;;;4977408;28;8823;-70
2022/06/10 10:55:12;;;;;;;;;20.40;17.20;;;;;;;;4978720;28;8931;-67
2022/06/10 10:57:39;;;;;;;;;23.00;16.00;;;;;;;;4978032;28;10244;-66
2022/06/10 11:00:06;;;;;;;;;19.75;16.25;;;;;;;;4977629;28;8775;-70
2022/06/10 11:02:37;;;;;;;;;27.00;21.75;;;;;;;;4977679;28;8829;-70
2022/06/10 11:05:20;;;;;;;;;20.75;17.25;;;;;;;;4978160;28;8781;-64
2022/06/10 11:07:47;;;;;;;;;21.50;19.50;;;;;;;;4977800;28;8776;-70
2022/06/10 11:10:21;;;;;;;;;20.50;17.00;;;;;;;;4978809;28;8841;-68
2022/06/10 11:12:48;;;;;;;;;25.25;21.75;;;;;;;;4978358;28;8842;-67
2022/06/10 11:15:18;;;;;;;;;27.00;23.50;;;;;;;;4960742;28;8795;-68
2022/06/10 11:17:46;;;;;;;;;25.00;20.00;;;;;;;;4977196;28;8779;-67
2022/06/10 11:20:16;;;;;;;;;22.75;19.00;;;;;;;;4976926;28;9463;-69
2022/06/10 11:22:44;;;;;;;;;27.25;20.25;;;;;;;;4977497;28;9215;-57
2022/06/10 11:25:17;;;;;;;;;28.50;21.00;;;;;;;;4978730;28;8767;-71
2022/06/10 11:27:50;;;;;;;;;21.50;20.50;;;;;;;;4977832;28;8885;-58
2022/06/10 11:30:22;;;;;;;;;21.60;17.80;;;;;;;;4977537;28;8822;-69
2022/06/10 11:32:49;;;;;;;;;22.00;18.75;;;;;;;;4977806;28;8809;-70
2022/06/10 11:35:32;;;;;;;;;22.00;19.50;;;;;;;;4977996;28;8795;-58
2022/06/10 11:37:59;;;;;;;;;21.50;18.75;;;;;;;;4977678;28;8776;-71
2022/06/10 11:40:28;;;;;;;;;21.50;18.00;;;;;;;;4977551;28;8752;-52
2022/06/10 11:42:57;;;;;;;;;19.75;16.75;;;;;;;;4978387;28;8807;-73
2022/06/10 11:45:47;;;;;;;;;19.40;16.80;;;;;;;;4960113;28;8804;-71
2022/06/10 11:48:14;;;;;;;;;21.40;16.20;;;;;;;;4968110;28;8775;-62
2022/06/10 11:50:43;;;;;;;;;19.00;17.40;;;;;;;;4977267;28;8792;-58
2022/06/10 11:53:12;;;;;;;;;18.20;15.00;;;;;;;;4977787;28;8779;-72
2022/06/10 11:55:40;;;;;;;;;20.25;19.00;;;;;;;;4978782;28;8847;-71
2022/06/10 12:01:27;;;;;;;;;20.00;15.00;;;;;;;;4961443;28;9486;-71
2022/06/10 12:03:53;;;;;;;;;19.60;15.60;;;;;;;;4962212;28;8766;-71
2022/06/10 12:06:37;;;;;;;;;15.40;12.00;;;;;;;;4961628;28;8754;-61
2022/06/10 12:09:04;;;;;;;;;15.00;11.80;;;;;;;;4944972;28;8773;-69
2022/06/10 12:11:32;;;;;;;;;14.80;11.40;;;;;;;;4961599;28;9496;-68
2022/06/10 12:14:22;;;;;;;;;14.00;12.00;;;;;;;;4967098;28;8818;-68
2022/06/10 12:16:50;;;;;;;;;19.00;15.00;;;;;;;;4954218;28;9411;-69
2022/06/10 12:19:22;;;;;;;;;15.00;12.00;;;;;;;;4981296;28;8818;-68
2022/06/10 12:21:48;;;;;;;;;20.20;14.40;;;;;;;;4980277;28;8787;-67
2022/06/10 12:24:16;;;;;;;;;15.40;10.40;;;;;;;;4979312;28;8775;-71
2022/06/10 12:26:47;;;;;;;;;12.60;10.60;;;;;;;;4979613;28;9492;-69
2022/06/10 12:29:18;;;;;;;;;13.00;12.80;;;;;;;;4963182;28;8771;-60
2022/06/10 12:31:52;;;;;;;;;15.00;13.20;;;;;;;;4963355;28;8823;-69
2022/06/10 12:34:25;;;;;;;;;15.00;14.33;;;;;;;;4980896;28;8874;-69
2022/06/10 12:36:59;;;;;;;;;20.20;16.00;;;;;;;;4980295;28;8792;-64
2022/06/10 12:39:28;;;;;;;;;13.60;11.80;;;;;;;;4963050;28;8764;-68
2022/06/10 12:41:57;;;;;;;;;13.80;11.80;;;;;;;;4980660;28;8842;-66
2022/06/10 12:44:25;;;;;;;;;16.80;13.20;;;;;;;;4962851;28;8787;-69
2022/06/10 12:46:53;;;;;;;;;10.80;10.20;;;;;;;;4979394;28;8783;-71
2022/06/10 12:49:37;;;;;;;;;9.60;8.80;;;;;;;;4980930;28;8826;-70
2022/06/10 12:52:07;;;;;;;;;18.60;13.00;;;;;;;;4980531;28;8811;-66
2022/06/10 12:54:33;;;;;;;;;16.20;11.20;;;;;;;;4979731;28;9489;-71
2022/06/10 12:57:18;;;;;;;;;15.40;12.40;;;;;;;;4962961;28;9149;-68
2022/06/10 12:59:45;;;;;;;;;16.00;13.00;;;;;;;;4979775;28;8770;-68
2022/06/10 13:02:30;;;;;;;;;9.60;8.20;;;;;;;;4980249;28;8795;-71
2022/06/10 13:04:58;;;;;;;;;12.40;11.60;;;;;;;;4980105;28;8862;-67
2022/06/10 13:07:30;;;;;;;;;15.40;12.00;;;;;;;;4961757;28;9476;-69
2022/06/10 13:10:07;;;;;;;;;10.20;9.60;;;;;;;;4980123;28;8849;-67
2022/06/10 13:12:37;;;;;;;;;13.80;11.80;;;;;;;;4961629;28;8906;-71
2022/06/10 13:15:15;;;;;;;;;14.20;12.00;;;;;;;;4979338;28;8799;-68
2022/06/10 13:17:52;;;;;;;;;16.80;11.20;;;;;;;;4978388;28;8817;-67
2022/06/10 13:20:19;;;;;;;;;13.00;11.80;;;;;;;;4979575;28;8775;-71
2022/06/10 13:22:46;;;;;;;;;13.40;11.40;;;;;;;;4979476;28;8759;-66
2022/06/10 13:25:16;;;;;;;;;12.40;12.00;;;;;;;;4978965;28;8806;-71
2022/06/10 13:27:47;;;;;;;;;11.80;9.80;;;;;;;;4978531;28;8806;-66
2022/06/10 13:30:20;;;;;;;;;12.60;10.20;;;;;;;;4979490;28;8833;-69
2022/06/10 13:32:48;;;;;;;;;10.60;10.00;;;;;;;;4978946;28;8771;-70
2022/06/10 13:35:18;;;;;;;;;8.80;8.80;;;;;;;;4979218;28;8783;-69
2022/06/10 13:37:45;;;;;;;;;10.00;8.20;;;;;;;;4979607;28;8807;-71
2022/06/10 13:40:22;;;;;;;;;10.20;8.20;;;;;;;;4962408;28;8784;-67
2022/06/10 13:42:51;;;;;;;;;12.60;10.80;;;;;;;;4979202;28;8838;-71
2022/06/10 13:45:18;;;;;;;;;14.60;11.00;;;;;;;;4961776;28;8775;-66
2022/06/10 13:48:00;;;;;;;;;8.40;6.20;;;;;;;;4979361;28;8877;-69
2022/06/10 13:53:53;;;;;;;;;11.40;9.40;;;;;;;;4978697;28;8772;-68
2022/06/10 13:56:24;;;;;;;;;12.20;11.00;;;;;;;;4968453;28;8833;-67
2022/06/10 13:58:55;;;;;;;;;11.00;8.20;;;;;;;;4978934;28;9443;-67
2022/06/10 14:01:25;;;;;;;;;12.40;9.80;;;;;;;;4979042;28;8829;-71
2022/06/10 14:03:56;;;;;;;;;10.80;9.20;;;;;;;;4979248;28;9451;-67
2022/06/10 14:06:30;;;;;;;;;10.20;7.80;;;;;;;;4978460;28;8853;-69
2022/06/10 14:08:58;;;;;;;;;10.40;8.80;;;;;;;;4978769;28;8759;-66
2022/06/10 14:11:24;;;;;;;;;9.00;9.00;;;;;;;;4961733;28;8767;-68
2022/06/10 14:13:55;;;;;;;;;10.40;6.80;;;;;;;;4978475;28;8845;-71
2022/06/10 14:16:22;;;;;;;;;9.80;7.00;;;;;;;;4979364;28;8760;-66
2022/06/10 14:18:49;;;;;;;;;10.60;8.00;;;;;;;;4978300;28;8768;-72
2022/06/10 14:21:15;;;;;;;;;9.00;9.00;;;;;;;;4977517;28;8899;-67
2022/06/10 14:24:02;;;;;;;;;10.40;8.20;;;;;;;;4978645;28;8794;-70
2022/06/10 14:26:29;;;;;;;;;10.40;8.00;;;;;;;;4965033;28;8756;-71
2022/06/10 14:29:09;;;;;;;;;13.20;8.00;;;;;;;;4978669;28;8772;-69
2022/06/10 14:31:35;;;;;;;;;9.60;8.00;;;;;;;;4978193;28;8767;-63
2022/06/10 14:34:02;;;;;;;;;11.60;8.60;;;;;;;;4978723;28;8845;-72
2022/06/10 14:36:30;;;;;;;;;9.00;6.60;;;;;;;;4961180;28;8763;-71
2022/06/10 14:39:15;;;;;;;;;8.20;8.20;;;;;;;;4978409;28;8771;-55
2022/06/10 14:42:02;;;;;;;;;8.20;6.60;;;;;;;;4978333;28;8776;-64
2022/06/10 14:44:30;;;;;;;;;10.00;8.80;;;;;;;;4977857;28;8787;-57
2022/06/10 14:47:07;;;;;;;;;10.40;8.00;;;;;;;;4976958;28;9428;-72
2022/06/10 14:50:00;;;;;;;;;8.60;8.20;;;;;;;;4978285;28;9051;-64
2022/06/10 14:52:32;;;;;;;;;10.00;8.00;;;;;;;;4967890;28;8843;-70
2022/06/10 14:54:58;;;;;;;;;16.00;9.60;;;;;;;;4977926;28;8776;-71
2022/06/10 14:57:28;;;;;;;;;8.40;7.40;;;;;;;;4978026;28;8759;-62
2022/06/10 14:59:55;;;;;;;;;8.00;8.00;;;;;;;;4976951;28;8865;-61
2022/06/10 15:02:22;;;;;;;;;9.20;7.40;;;;;;;;4977949;28;8809;-58
2022/06/10 15:07:34;;;;;;;;;7.00;7.00;;;;;;;;4974734;28;8859;-71